Time;durP1;ratioP1;P1;durP2;ratioP2;P2;SDS_P1;SDS_P2;PMS_P1;PMS_P2;Temp;Humidity;BMP_temperature;BMP_pressure;BME280_temperature;BME280_humidity;BME280_pressure;Samples;Min_cycle;Max_cycle;Signal;HPM_P1;HPM_P2
2022/01/02 00:00:13;;;;;;;6.80;3.28;;;9.10;99.90;;;;;;4953742;29;20197;-95
2022/01/02 00:02:41;;;;;;;6.25;3.42;;;9.00;99.90;;;;;;4940735;29;20239;-95
2022/01/02 00:05:27;;;;;;;5.28;3.38;;;9.10;99.90;;;;;;4950748;28;20257;-95
2022/01/02 00:08:05;;;;;;;10.63;3.73;;;9.10;99.90;;;;;;4959001;28;20223;-95
2022/01/02 00:10:52;;;;;;;5.27;3.53;;;9.00;99.90;;;;;;4940741;29;20279;-96
2022/01/02 00:13:24;;;;;;;6.50;3.87;;;9.00;99.90;;;;;;4944609;28;20547;-95
2022/01/02 00:15:56;;;;;;;5.65;3.80;;;9.00;99.90;;;;;;4959107;28;20275;-95
2022/01/02 00:18:26;;;;;;;5.32;3.95;;;9.00;99.90;;;;;;4959518;28;20269;-96
2022/01/02 00:20:52;;;;;;;6.03;4.03;;;9.00;99.90;;;;;;4959427;28;20180;-95
2022/01/02 00:23:23;;;;;;;7.78;4.45;;;9.00;99.90;;;;;;4959728;28;20219;-95
2022/01/02 00:25:54;;;;;;;7.03;4.30;;;9.00;99.90;;;;;;4944176;28;20636;-96
2022/01/02 00:28:20;;;;;;;5.83;3.93;;;9.00;99.90;;;;;;4959177;28;20620;-96
2022/01/02 00:30:48;;;;;;;7.80;3.73;;;9.00;99.90;;;;;;4959572;28;20235;-96
2022/01/02 00:33:14;;;;;;;6.90;4.10;;;9.10;99.90;;;;;;4959844;28;20188;-96
2022/01/02 00:35:40;;;;;;;8.00;4.20;;;9.10;99.90;;;;;;4959189;28;20189;-96
2022/01/02 00:38:07;;;;;;;7.60;4.30;;;9.10;99.90;;;;;;4959780;28;20200;-95
2022/01/02 00:40:40;;;;;;;7.93;4.32;;;9.10;99.90;;;;;;4959655;28;20220;-96
2022/01/02 00:43:12;;;;;;;7.93;4.10;;;9.10;99.90;;;;;;4959509;28;20275;-95
2022/01/02 00:45:44;;;;;;;7.57;4.07;;;9.10;99.90;;;;;;4959560;28;20628;-96
2022/01/02 00:48:32;;;;;;;5.73;3.80;;;9.10;99.90;;;;;;4959518;28;20231;-95
2022/01/02 00:51:09;;;;;;;7.83;4.20;;;9.00;99.90;;;;;;4959464;28;20267;-96
2022/01/02 00:53:36;;;;;;;7.63;3.97;;;9.00;99.90;;;;;;4959272;28;20287;-96
2022/01/02 00:56:03;;;;;;;9.10;5.07;;;8.90;99.90;;;;;;4958966;28;20203;-96
2022/01/02 00:58:52;;;;;;;8.83;4.73;;;8.90;99.90;;;;;;4959601;28;20220;-95
2022/01/02 01:01:24;;;;;;;6.90;4.40;;;8.90;99.90;;;;;;4947601;29;20739;-95
2022/01/02 01:03:53;;;;;;;10.00;4.40;;;8.90;99.90;;;;;;4958174;28;20678;-95
2022/01/02 01:06:24;;;;;;;8.80;4.90;;;8.90;99.90;;;;;;4958439;28;20215;-96
2022/01/02 01:08:56;;;;;;;7.97;4.80;;;8.80;99.90;;;;;;4958836;28;20192;-95
2022/01/02 01:11:28;;;;;;;7.40;4.90;;;8.90;99.90;;;;;;4959203;28;20620;-96
2022/01/02 01:13:56;;;;;;;6.77;4.60;;;8.90;99.90;;;;;;4959285;28;20200;-95
2022/01/02 01:16:22;;;;;;;8.53;4.90;;;8.80;99.90;;;;;;4959056;28;20191;-95
2022/01/02 01:18:49;;;;;;;5.83;4.40;;;8.90;99.90;;;;;;4949989;29;20562;-96
2022/01/02 01:21:15;;;;;;;9.57;5.10;;;8.90;99.90;;;;;;4939768;29;20173;-95
2022/01/02 01:23:41;;;;;;;8.30;4.60;;;8.80;99.90;;;;;;4939855;29;20197;-95
2022/01/02 01:26:09;;;;;;;8.00;5.13;;;8.80;99.90;;;;;;4939849;29;20308;-95
2022/01/02 01:28:36;;;;;;;8.33;5.07;;;8.80;99.90;;;;;;4939895;29;20205;-95
2022/01/02 01:31:02;;;;;;;6.57;4.17;;;8.80;99.90;;;;;;4939668;29;20193;-95
2022/01/02 01:33:28;;;;;;;6.47;4.43;;;8.70;99.90;;;;;;4939700;29;20189;-96
2022/01/02 01:35:54;;;;;;;6.73;4.70;;;8.80;99.90;;;;;;4939218;29;20192;-95
2022/01/02 01:38:19;;;;;;;7.67;4.80;;;8.80;99.90;;;;;;4942001;28;20280;-95
2022/01/02 01:41:19;;;;;;;9.20;5.23;;;8.80;99.90;;;;;;4961922;28;20567;-95
2022/01/02 01:44:06;;;;;;;7.10;4.70;;;8.80;99.90;;;;;;4944843;28;20515;-95
2022/01/02 01:46:33;;;;;;;8.53;4.87;;;8.80;99.90;;;;;;4962541;28;20571;-95
2022/01/02 01:48:58;;;;;;;9.50;5.00;;;8.90;99.90;;;;;;4962650;28;20193;-95
2022/01/02 01:51:25;;;;;;;7.97;5.43;;;8.90;99.90;;;;;;4962656;28;20243;-96
2022/01/02 01:53:51;;;;;;;8.77;5.80;;;8.90;99.90;;;;;;4962370;28;20196;-95
2022/01/02 01:56:17;;;;;;;8.27;5.53;;;9.00;99.90;;;;;;4962241;28;20215;-95
2022/01/02 01:58:44;;;;;;;8.32;5.22;;;9.00;99.90;;;;;;4962499;28;20189;-95
2022/01/02 02:01:10;;;;;;;8.50;5.40;;;9.00;99.90;;;;;;4962119;28;20683;-96
2022/01/02 02:03:35;;;;;;;8.17;4.90;;;9.10;99.90;;;;;;4962597;28;20188;-95
2022/01/02 02:06:01;;;;;;;10.73;5.63;;;9.10;99.90;;;;;;4958359;28;20228;-95
2022/01/02 02:08:27;;;;;;;9.50;5.70;;;9.20;99.90;;;;;;4942727;29;20193;-96
2022/01/02 02:10:56;;;;;;;8.07;5.40;;;9.10;99.90;;;;;;4944302;28;20617;-96
2022/01/02 02:13:24;;;;;;;8.43;5.17;;;9.00;99.90;;;;;;4962228;28;20196;-95
2022/01/02 02:15:51;;;;;;;9.15;5.65;;;9.00;99.90;;;;;;4961711;28;20203;-96
2022/01/02 02:18:17;;;;;;;7.50;4.95;;;9.10;99.90;;;;;;4944090;29;20193;-95
2022/01/02 02:20:43;;;;;;;10.37;5.13;;;9.00;99.90;;;;;;4953382;28;20193;-96
2022/01/02 02:23:13;;;;;;;8.20;5.37;;;9.00;99.90;;;;;;4961690;28;20605;-96
2022/01/02 02:25:39;;;;;;;7.13;4.50;;;8.90;99.90;;;;;;4961977;28;20195;-95
2022/01/02 02:28:08;;;;;;;9.02;5.50;;;8.90;99.90;;;;;;4961788;28;20220;-96
2022/01/02 02:30:37;;;;;;;7.90;4.93;;;8.90;99.90;;;;;;4961875;28;20220;-95
2022/01/02 02:33:05;;;;;;;9.93;5.28;;;8.90;99.90;;;;;;4961830;28;20243;-95
2022/01/02 02:35:33;;;;;;;10.83;6.27;;;8.90;99.90;;;;;;4961608;28;20192;-95
2022/01/02 02:37:59;;;;;;;10.23;6.35;;;8.90;99.90;;;;;;4961865;28;20244;-95
2022/01/02 02:40:28;;;;;;;15.10;6.30;;;9.00;99.90;;;;;;4961615;28;20189;-95
2022/01/02 02:51:05;;;;;;;11.05;7.28;;;8.90;99.90;;;;;;4958808;28;20696;-96
2022/01/02 02:53:36;;;;;;;13.20;8.17;;;8.90;99.90;;;;;;4943090;29;20197;-96
2022/01/02 02:56:12;;;;;;;15.95;8.45;;;8.90;99.90;;;;;;4942221;29;20244;-95
2022/01/02 02:58:41;;;;;;;11.25;8.00;;;9.00;99.90;;;;;;4942406;29;20189;-96
2022/01/02 03:01:08;;;;;;;11.40;7.70;;;9.00;99.90;;;;;;4941875;29;20641;-96
2022/01/02 03:03:35;;;;;;;14.00;8.93;;;9.00;99.90;;;;;;4942010;29;20201;-94
2022/01/02 03:06:01;;;;;;;14.43;8.23;;;9.10;99.90;;;;;;4941910;28;20664;-96
2022/01/02 03:08:27;;;;;;;14.15;8.07;;;9.10;99.90;;;;;;4941903;29;20197;-96
2022/01/02 03:10:53;;;;;;;14.60;8.73;;;9.20;99.90;;;;;;4955252;28;20223;-96
